createdAt,value
2023-04-28T00:02:11.257Z,12.86
2023-04-28T00:03:11.896Z,12.84
2023-04-28T00:06:57.369Z,12.91
2023-04-28T00:08:40.388Z,12.80
2023-04-28T00:09:40.295Z,12.88
2023-04-28T00:11:27.556Z,12.73
2023-04-28T00:12:27.603Z,12.77
2023-04-28T00:15:27.871Z,12.76
2023-04-28T00:17:27.816Z,12.74
2023-04-28T00:18:29.017Z,12.73
2023-04-28T00:19:28.184Z,12.76
2023-04-28T00:20:27.806Z,12.84
2023-04-28T00:21:27.833Z,12.81
2023-04-28T00:22:28.063Z,12.76
2023-04-28T00:23:27.886Z,12.73
2023-04-28T00:24:28.135Z,12.86
2023-04-28T00:27:27.997Z,12.76
2023-04-28T00:28:34.155Z,12.81
2023-04-28T00:29:28.052Z,12.77
2023-04-28T00:30:28.076Z,12.69
2023-04-28T00:31:28.142Z,12.78
2023-04-28T00:32:28.209Z,12.70
2023-04-28T00:33:28.179Z,12.80
2023-04-28T00:34:28.185Z,12.74
2023-04-28T00:35:28.226Z,12.83
2023-04-28T00:36:28.243Z,12.71
2023-04-28T00:37:28.281Z,12.70
2023-04-28T00:38:28.291Z,12.69
2023-04-28T00:39:28.324Z,12.77
2023-04-28T00:40:28.371Z,12.69
2023-04-28T00:42:28.406Z,12.70
2023-04-28T00:43:28.430Z,12.76
2023-04-28T00:44:28.465Z,12.66
2023-04-28T00:45:28.503Z,12.66
2023-04-28T00:46:28.512Z,12.73
2023-04-28T00:47:28.559Z,12.71
2023-04-28T00:48:28.570Z,12.74
2023-04-28T00:49:28.596Z,12.71
2023-04-28T00:50:28.622Z,12.66
2023-04-28T00:51:28.649Z,12.63
2023-04-28T00:52:28.679Z,12.70
2023-04-28T00:53:29.008Z,12.80
2023-04-28T00:54:28.740Z,12.71
2023-04-28T00:55:28.768Z,12.66
2023-04-28T00:56:28.810Z,12.81
2023-04-28T00:57:28.827Z,12.69
2023-04-28T00:58:28.845Z,12.77
2023-04-28T01:00:28.906Z,12.83
2023-04-28T01:01:28.973Z,12.71
2023-04-28T01:02:29.250Z,12.74
2023-04-28T01:03:29.147Z,12.78
2023-04-28T01:05:29.066Z,12.78
2023-04-28T01:07:29.095Z,12.81
2023-04-28T01:08:29.117Z,12.91
2023-04-28T01:09:29.466Z,12.81
2023-04-28T01:11:29.806Z,12.74
2023-04-28T01:13:29.275Z,12.86
2023-04-28T01:16:29.581Z,12.76
2023-04-28T01:17:29.825Z,12.84
2023-04-28T01:18:29.606Z,12.73
2023-04-28T01:26:29.813Z,11.97
2023-04-28T01:27:29.839Z,11.89
2023-04-28T01:28:31.104Z,11.79
2023-04-28T01:29:30.102Z,11.73
2023-04-28T01:31:29.961Z,11.61
2023-04-28T01:34:29.834Z,11.61
2023-04-28T01:35:30.058Z,11.56
2023-04-28T01:36:29.883Z,11.53
2023-04-28T01:37:30.316Z,11.53
2023-04-28T01:38:29.931Z,11.46
2023-04-28T01:39:29.972Z,11.41
2023-04-28T01:40:29.987Z,11.41
2023-04-28T01:41:30.010Z,11.41
2023-04-28T01:42:30.034Z,11.27
2023-04-28T01:43:32.798Z,11.30
2023-04-28T01:44:30.087Z,11.34
2023-04-28T01:45:30.118Z,11.24
2023-04-28T01:46:30.185Z,11.28
2023-04-28T01:47:30.184Z,11.26
2023-04-28T01:48:30.195Z,11.21
2023-04-28T01:49:30.221Z,11.27
2023-04-28T01:50:30.248Z,11.28
2023-04-28T01:51:30.274Z,11.15
2023-04-28T01:52:30.509Z,11.18
2023-04-28T01:53:30.332Z,11.16
2023-04-28T01:54:30.354Z,11.05
2023-04-28T01:55:30.384Z,11.03
2023-04-28T01:56:30.416Z,11.03
2023-04-28T01:58:31.687Z,11.13
2023-04-28T01:59:30.510Z,11.21
2023-04-28T02:00:30.520Z,11.06
2023-04-28T02:01:30.605Z,10.95
2023-04-28T02:02:30.611Z,11.03
2023-04-28T02:03:30.724Z,11.03
2023-04-28T02:05:30.861Z,11.03
2023-04-28T02:06:30.680Z,11.06
2023-04-28T02:07:30.908Z,11.09
2023-04-28T02:08:30.740Z,11.08
2023-04-28T02:09:30.766Z,11.08
2023-04-28T02:10:30.989Z,11.09
2023-04-28T02:11:30.815Z,10.97
2023-04-28T02:12:30.850Z,10.97
2023-04-28T02:13:31.067Z,10.92
2023-04-28T02:14:30.892Z,10.95
2023-04-28T02:15:32.158Z,11.00
2023-04-28T02:16:30.997Z,10.91
2023-04-28T02:17:30.993Z,11.00
2023-04-28T02:18:31.007Z,10.98
2023-04-28T02:19:31.025Z,10.91
2023-04-28T02:20:33.152Z,11.02
2023-04-28T02:21:31.077Z,10.95
2023-04-28T02:22:31.100Z,10.92
2023-04-28T02:23:31.142Z,10.91
2023-04-28T02:24:31.154Z,10.91
2023-04-28T02:25:31.181Z,10.97
2023-04-28T02:26:31.215Z,11.00
2023-04-28T02:27:31.235Z,10.88
2023-04-28T02:28:31.260Z,11.00
2023-04-28T02:29:31.286Z,10.92
2023-04-28T02:30:31.313Z,10.91
2023-04-28T02:31:31.416Z,10.90
2023-04-28T02:32:31.452Z,10.92
2023-04-28T02:33:31.397Z,10.91
2023-04-28T02:34:31.422Z,10.88
2023-04-28T02:35:31.451Z,10.92
2023-04-28T02:36:31.473Z,10.92
2023-04-28T02:37:31.502Z,10.91
2023-04-28T02:38:31.534Z,10.87
2023-04-28T02:39:31.756Z,10.97
2023-04-28T02:40:31.584Z,10.94
2023-04-28T02:41:31.606Z,10.92
2023-04-28T02:42:31.631Z,10.90
2023-04-28T02:43:31.679Z,10.97
2023-04-28T02:44:31.686Z,10.91
2023-04-28T02:45:31.712Z,10.95
2023-04-28T02:46:31.800Z,10.90
2023-04-28T02:47:31.837Z,10.91
2023-04-28T02:48:31.793Z,10.91
2023-04-28T02:49:31.817Z,10.97
2023-04-28T02:50:31.852Z,11.02
2023-04-28T02:51:31.872Z,11.02
2023-04-28T02:52:31.918Z,10.98
2023-04-28T02:53:31.926Z,11.00
2023-04-28T02:54:31.950Z,10.87
2023-04-28T02:55:31.980Z,10.85
2023-04-28T02:56:34.637Z,10.84
2023-04-28T02:57:32.053Z,10.91
2023-04-28T02:58:32.055Z,10.87
2023-04-28T02:59:32.082Z,10.87
2023-04-28T03:00:32.113Z,10.88
2023-04-28T03:01:32.403Z,10.95
2023-04-28T03:02:32.249Z,10.92
2023-04-28T03:03:32.312Z,10.92
2023-04-28T03:04:32.442Z,11.03
2023-04-28T03:05:33.461Z,10.94
2023-04-28T03:06:32.583Z,11.00
2023-04-28T03:07:32.292Z,10.98
2023-04-28T03:08:32.319Z,10.95
2023-04-28T03:09:32.356Z,10.92
2023-04-28T03:10:32.372Z,10.91
2023-04-28T03:11:32.396Z,10.88
2023-04-28T03:12:32.422Z,10.97
2023-04-28T03:13:32.660Z,10.92
2023-04-28T03:15:32.516Z,10.92
2023-04-28T03:16:32.782Z,10.88
2023-04-28T03:17:32.564Z,10.88
2023-04-28T03:19:32.629Z,10.94
2023-04-28T03:20:32.634Z,10.90
2023-04-28T03:21:32.918Z,10.92
2023-04-28T03:22:32.897Z,10.88
2023-04-28T03:23:32.715Z,10.90
2023-04-28T03:26:32.820Z,10.91
2023-04-28T03:27:33.346Z,10.95
2023-04-28T03:28:33.469Z,10.92
2023-04-28T03:30:33.117Z,10.92
2023-04-28T03:31:32.940Z,10.90
2023-04-28T03:32:32.993Z,10.95
2023-04-28T03:33:32.987Z,10.92
2023-04-28T03:34:33.211Z,10.88
2023-04-28T03:35:33.051Z,10.88
2023-04-28T03:36:33.076Z,10.91
2023-04-28T03:37:35.708Z,10.85
2023-04-28T03:39:33.146Z,10.91
2023-04-28T03:40:33.162Z,10.90
2023-04-28T03:41:33.200Z,10.88
2023-04-28T03:42:33.230Z,10.76
2023-04-28T03:43:33.245Z,10.88
2023-04-28T03:44:33.273Z,10.91
2023-04-28T03:45:33.313Z,10.91
2023-04-28T03:46:33.321Z,10.91
2023-04-28T03:47:33.355Z,10.98
2023-04-28T03:48:33.378Z,10.90
2023-04-28T03:49:36.025Z,10.95
2023-04-28T03:50:33.434Z,10.87
2023-04-28T03:51:34.892Z,10.90
2023-04-28T03:52:33.479Z,10.95
2023-04-28T03:53:33.509Z,10.90
2023-04-28T03:54:33.530Z,10.90
2023-04-28T03:55:33.560Z,10.94
2023-04-28T03:56:33.584Z,10.92
2023-04-28T03:57:33.626Z,10.92
2023-04-28T03:58:33.852Z,10.80
2023-04-28T03:59:33.663Z,10.80
2023-04-28T04:01:33.741Z,10.69
2023-04-28T04:02:33.855Z,10.66
2023-04-28T04:03:33.900Z,10.67
2023-04-28T04:04:33.988Z,10.70
2023-04-28T04:05:33.837Z,10.61
2023-04-28T04:06:33.849Z,10.58
2023-04-28T04:07:33.899Z,10.54
2023-04-28T04:08:33.905Z,10.58
2023-04-28T04:09:33.927Z,10.57
2023-04-28T04:10:33.963Z,10.58
2023-04-28T04:11:33.979Z,10.52
2023-04-28T04:12:34.030Z,10.54
2023-04-28T04:13:34.030Z,10.57
2023-04-28T04:14:34.060Z,10.58
2023-04-28T04:15:34.162Z,10.52
2023-04-28T04:16:34.115Z,10.63
2023-04-28T04:17:34.165Z,10.63
2023-04-28T04:18:34.164Z,10.57
2023-04-28T04:19:34.190Z,10.51
2023-04-28T04:20:34.215Z,10.57
2023-04-28T04:21:34.244Z,10.49
2023-04-28T04:22:34.267Z,10.54
2023-04-28T04:23:34.314Z,10.57
2023-04-28T04:24:34.533Z,10.38
2023-04-28T04:25:34.341Z,10.49
2023-04-28T04:26:34.577Z,10.52
2023-04-28T04:27:34.396Z,10.58
2023-04-28T04:28:34.744Z,10.44
2023-04-28T04:29:34.454Z,10.41
2023-04-28T04:30:34.471Z,10.47
2023-04-28T04:31:34.557Z,10.42
2023-04-28T04:32:34.580Z,10.51
2023-04-28T04:33:34.544Z,10.58
2023-04-28T04:34:34.572Z,10.61
2023-04-28T04:35:34.618Z,10.58
2023-04-28T04:36:34.636Z,10.65
2023-04-28T04:37:34.648Z,10.69
2023-04-28T04:38:34.676Z,10.66
2023-04-28T04:39:34.725Z,10.67
2023-04-28T04:40:34.727Z,10.75
2023-04-28T04:41:34.764Z,10.83
2023-04-28T04:42:34.778Z,10.80
2023-04-28T04:43:34.809Z,10.80
2023-04-28T04:44:35.664Z,10.83
2023-04-28T04:45:34.863Z,10.79
2023-04-28T04:46:34.915Z,10.77
2023-04-28T04:47:34.951Z,10.87
2023-04-28T04:48:34.938Z,10.84
2023-04-28T04:49:34.965Z,10.88
2023-04-28T04:50:34.989Z,10.83
2023-04-28T04:51:35.019Z,10.90
2023-04-28T04:52:35.042Z,10.91
2023-04-28T04:53:35.063Z,10.90
2023-04-28T04:54:35.092Z,10.90
2023-04-28T04:55:35.136Z,10.87
2023-04-28T04:56:35.156Z,10.91
2023-04-28T04:57:35.172Z,10.91
2023-04-28T04:58:35.197Z,10.90
2023-04-28T04:59:35.226Z,11.00
2023-04-28T05:00:35.264Z,10.92
2023-04-28T05:01:35.326Z,10.90
2023-04-28T05:02:35.423Z,10.92
2023-04-28T05:03:35.518Z,10.92
2023-04-28T05:04:35.461Z,10.92
2023-04-28T05:05:35.396Z,11.02
2023-04-28T05:06:35.458Z,11.03
2023-04-28T05:07:35.441Z,11.15
2023-04-28T05:08:35.461Z,11.18
2023-04-28T05:09:35.502Z,11.15
2023-04-28T05:10:35.515Z,11.21
2023-04-28T05:11:35.563Z,11.18
2023-04-28T05:12:35.583Z,11.16
2023-04-28T05:13:35.600Z,11.21
2023-04-28T05:14:35.635Z,11.21
2023-04-28T05:15:35.649Z,11.13
2023-04-28T05:16:35.764Z,11.18
2023-04-28T05:17:35.723Z,11.18
2023-04-28T05:18:35.724Z,11.16
2023-04-28T05:19:35.919Z,11.21
2023-04-28T05:20:35.775Z,11.28
2023-04-28T05:21:35.812Z,11.24
2023-04-28T05:22:35.834Z,11.24
2023-04-28T05:23:35.856Z,11.24
2023-04-28T05:24:35.882Z,11.27
2023-04-28T05:25:35.911Z,11.28
2023-04-28T05:26:35.933Z,11.33
2023-04-28T05:27:35.988Z,11.31
2023-04-28T05:28:36.154Z,11.41
2023-04-28T05:29:36.113Z,11.42
2023-04-28T05:30:36.038Z,11.45
2023-04-28T05:31:36.100Z,11.27
2023-04-28T05:32:36.151Z,11.26
2023-04-28T05:33:36.119Z,11.35
2023-04-28T05:34:36.143Z,11.35
2023-04-28T05:35:36.372Z,11.43
2023-04-28T05:36:36.208Z,11.42
2023-04-28T05:37:36.272Z,11.39
2023-04-28T05:38:36.253Z,11.39
2023-04-28T05:39:36.297Z,11.42
2023-04-28T05:40:36.297Z,11.33
2023-04-28T05:41:36.325Z,11.39
2023-04-28T05:42:36.362Z,11.41
2023-04-28T05:43:36.396Z,11.56
2023-04-28T05:44:36.406Z,11.56
2023-04-28T05:45:36.431Z,11.66
2023-04-28T05:46:36.547Z,11.57
2023-04-28T05:47:36.721Z,11.68
2023-04-28T05:48:36.499Z,11.60
2023-04-28T05:49:36.532Z,11.61
2023-04-28T05:50:38.810Z,11.68
2023-04-28T05:51:36.610Z,11.64
2023-04-28T05:52:36.609Z,11.63
2023-04-28T05:53:36.635Z,11.52
2023-04-28T05:54:36.660Z,11.48
2023-04-28T05:55:36.701Z,11.52
2023-04-28T05:56:36.714Z,11.52
2023-04-28T05:57:49.287Z,11.51
2023-04-28T05:58:36.783Z,11.46
2023-04-28T05:59:36.818Z,11.41
2023-04-28T06:00:36.820Z,11.42
2023-04-28T06:01:38.060Z,11.43
2023-04-28T06:02:36.926Z,11.45
2023-04-28T06:03:37.126Z,11.33
2023-04-28T06:04:37.193Z,11.31
2023-04-28T06:05:37.421Z,11.28
2023-04-28T06:06:36.976Z,11.28
2023-04-28T06:07:37.006Z,11.31
2023-04-28T06:08:37.072Z,11.38
2023-04-28T06:09:37.050Z,11.38
2023-04-28T06:10:37.082Z,11.39
2023-04-28T06:11:37.107Z,11.41
2023-04-28T06:12:38.581Z,11.43
2023-04-28T06:13:38.174Z,11.52
2023-04-28T06:14:37.184Z,11.48
2023-04-28T06:15:37.330Z,11.48
2023-04-28T06:16:37.233Z,11.57
2023-04-28T06:17:38.093Z,11.52
2023-04-28T06:18:37.286Z,11.45
2023-04-28T06:19:37.325Z,11.56
2023-04-28T06:20:37.339Z,11.64
2023-04-28T06:21:37.683Z,11.70
2023-04-28T06:22:37.382Z,11.70
2023-04-28T06:23:37.415Z,11.73
2023-04-28T06:24:37.439Z,11.71
2023-04-28T06:25:37.466Z,11.67
2023-04-28T06:26:37.490Z,11.61
2023-04-28T06:27:37.517Z,11.73
2023-04-28T06:28:37.553Z,11.66
2023-04-28T06:29:37.981Z,11.78
2023-04-28T06:30:37.662Z,11.81
2023-04-28T06:31:37.728Z,11.70
2023-04-28T06:32:37.764Z,11.78
2023-04-28T06:33:37.678Z,11.78
2023-04-28T06:34:37.703Z,11.78
2023-04-28T06:35:37.726Z,11.81
2023-04-28T06:36:37.758Z,11.84
2023-04-28T06:37:37.786Z,11.89
2023-04-28T06:38:37.828Z,11.81
2023-04-28T06:39:37.838Z,11.89
2023-04-28T06:40:37.863Z,11.89
2023-04-28T06:41:37.895Z,11.88
2023-04-28T06:42:37.914Z,11.94
2023-04-28T06:43:37.944Z,11.98
2023-04-28T06:44:37.970Z,12.13
2023-04-28T06:45:38.089Z,12.15
2023-04-28T06:46:38.090Z,12.05
2023-04-28T06:47:38.312Z,12.22
2023-04-28T06:48:38.073Z,12.19
2023-04-28T06:49:38.108Z,12.26
2023-04-28T06:50:38.128Z,12.18
2023-04-28T06:51:38.171Z,12.25
2023-04-28T06:52:39.666Z,12.31
2023-04-28T06:53:38.208Z,12.29
2023-04-28T06:54:38.247Z,12.34
2023-04-28T06:55:38.266Z,12.26
2023-04-28T06:56:38.293Z,12.28
2023-04-28T06:57:38.510Z,12.29
2023-04-28T06:58:38.342Z,12.41
2023-04-28T06:59:38.386Z,12.37
2023-04-28T07:00:38.455Z,12.45
2023-04-28T07:01:38.458Z,12.45
2023-04-28T07:02:38.681Z,12.59
2023-04-28T07:03:38.828Z,12.62
2023-04-28T07:04:38.565Z,12.66
2023-04-28T07:05:38.535Z,12.66
2023-04-28T07:06:38.560Z,12.71
2023-04-28T07:07:38.618Z,12.76
2023-04-28T07:08:38.611Z,12.86
2023-04-28T07:09:38.642Z,12.86
2023-04-28T07:10:38.680Z,12.95
2023-04-28T07:11:38.696Z,12.92
2023-04-28T07:12:38.727Z,12.98
2023-04-28T07:13:38.754Z,13.07
2023-04-28T07:14:38.776Z,13.10
2023-04-28T07:15:38.825Z,13.09
2023-04-28T07:16:38.865Z,13.07
2023-04-28T07:17:38.904Z,13.07
2023-04-28T07:18:38.892Z,13.10
2023-04-28T07:19:38.941Z,13.11
2023-04-28T07:20:38.942Z,13.03
2023-04-28T07:21:38.973Z,13.06
2023-04-28T07:22:39.007Z,13.03
2023-04-28T07:23:39.028Z,13.13
2023-04-28T07:24:39.055Z,13.09
2023-04-28T07:25:39.081Z,13.16
2023-04-28T07:26:39.111Z,13.02
2023-04-28T07:27:39.144Z,13.02
2023-04-28T07:28:39.165Z,13.09
2023-04-28T07:29:39.189Z,13.01
2023-04-28T07:30:39.217Z,13.10
2023-04-28T07:31:39.300Z,13.07
2023-04-28T07:32:39.394Z,13.10
2023-04-28T07:33:39.302Z,13.11
2023-04-28T07:34:39.325Z,13.02
2023-04-28T07:35:39.381Z,12.92
2023-04-28T07:36:39.385Z,12.95
2023-04-28T07:37:39.411Z,12.99
2023-04-28T07:38:39.437Z,12.94
2023-04-28T07:39:39.466Z,12.95
2023-04-28T07:40:39.492Z,13.09
2023-04-28T07:41:39.524Z,13.07
2023-04-28T07:42:39.545Z,13.02
2023-04-28T07:43:39.574Z,13.07
2023-04-28T07:44:39.600Z,13.16
2023-04-28T07:46:22.181Z,13.17
2023-04-28T07:47:22.207Z,13.17
2023-04-28T07:48:22.258Z,13.37
2023-04-28T07:49:22.261Z,13.55
2023-04-28T07:50:22.308Z,13.76
2023-04-28T07:51:22.337Z,13.94
2023-04-28T07:52:22.353Z,14.13
2023-04-28T07:53:22.367Z,14.26
2023-04-28T07:54:22.396Z,14.44
2023-04-28T07:55:22.429Z,14.60
2023-04-28T07:56:22.453Z,14.71
2023-04-28T07:57:22.485Z,14.69
2023-04-28T07:58:22.509Z,14.67
2023-04-28T07:59:22.536Z,14.67
2023-04-28T08:00:22.562Z,14.71
2023-04-28T08:01:22.592Z,14.86
2023-04-28T08:02:22.834Z,14.90
2023-04-28T08:03:22.953Z,14.87
2023-04-28T08:04:23.022Z,14.89
2023-04-28T08:05:22.828Z,14.86
2023-04-28T08:06:22.744Z,14.80
2023-04-28T08:07:22.797Z,14.75
2023-04-28T08:08:22.789Z,14.67
2023-04-28T08:09:22.820Z,14.70
2023-04-28T08:10:22.849Z,14.74
2023-04-28T08:11:22.875Z,14.71
2023-04-28T08:12:22.904Z,14.61
2023-04-28T08:13:22.935Z,14.79
2023-04-28T08:14:22.971Z,14.82
2023-04-28T08:15:22.991Z,14.87
2023-04-28T08:16:23.055Z,14.98
2023-04-28T08:17:23.112Z,15.20
2023-04-28T08:18:23.131Z,15.27
2023-04-28T08:19:23.110Z,15.60
2023-04-28T08:20:24.732Z,15.86
2023-04-28T08:21:23.163Z,16.13
2023-04-28T08:22:23.192Z,16.18
2023-04-28T08:23:23.256Z,16.49
2023-04-28T08:24:23.247Z,17.12
2023-04-28T08:25:23.276Z,17.63
2023-04-28T08:26:23.307Z,17.96
2023-04-28T08:27:23.348Z,17.79
2023-04-28T08:28:23.381Z,17.80
2023-04-28T08:29:23.402Z,17.76
2023-04-28T08:30:23.426Z,17.63
2023-04-28T08:31:23.495Z,17.31
2023-04-28T08:32:23.489Z,17.18
2023-04-28T08:33:23.522Z,17.06
2023-04-28T08:34:23.549Z,16.80
2023-04-28T08:35:23.599Z,16.67
2023-04-28T08:36:23.611Z,16.58
2023-04-28T08:37:23.644Z,16.44
2023-04-28T08:38:23.671Z,16.33
2023-04-28T08:39:23.775Z,16.29
2023-04-28T08:40:23.735Z,16.37
2023-04-28T08:41:23.768Z,16.51
2023-04-28T08:42:23.803Z,16.49
2023-04-28T08:43:23.825Z,16.48
2023-04-28T08:44:23.863Z,16.27
2023-04-28T08:45:23.913Z,16.33
2023-04-28T08:46:24.008Z,16.40
2023-04-28T08:47:24.009Z,16.54
2023-04-28T08:48:23.977Z,16.65
2023-04-28T08:49:24.008Z,16.63
2023-04-28T08:50:24.035Z,16.66
2023-04-28T08:51:24.069Z,16.63
2023-04-28T08:52:24.096Z,16.47
2023-04-28T08:54:26.742Z,16.49
2023-04-28T08:56:24.485Z,16.36
2023-04-28T08:58:24.490Z,16.25
2023-04-28T08:59:24.543Z,16.32
2023-04-28T09:03:24.741Z,16.17
2023-04-28T09:04:24.793Z,16.11
2023-04-28T09:09:26.133Z,16.58
2023-04-28T09:12:24.718Z,16.65
2023-04-28T09:13:24.942Z,16.63
2023-04-28T09:14:24.777Z,16.54
2023-04-28T09:15:24.792Z,16.51
2023-04-28T09:20:27.973Z,16.08
2023-04-28T09:21:27.594Z,16.04
2023-04-28T09:22:26.691Z,16.07
2023-04-28T09:23:25.041Z,15.95
2023-04-28T09:24:25.068Z,15.89
2023-04-28T09:25:25.097Z,15.80
2023-04-28T09:26:25.123Z,15.74
2023-04-28T09:27:25.152Z,15.86
2023-04-28T09:28:25.206Z,15.81
2023-04-28T09:29:25.218Z,15.75
2023-04-28T09:30:25.242Z,15.71
2023-04-28T09:31:25.356Z,15.70
2023-04-28T09:32:25.390Z,15.63
2023-04-28T09:33:25.406Z,15.60
2023-04-28T09:34:25.363Z,15.56
2023-04-28T09:35:25.395Z,15.55
2023-04-28T09:36:25.422Z,15.55
2023-04-28T09:37:25.478Z,15.55
2023-04-28T09:38:25.493Z,15.60
2023-04-28T09:39:25.513Z,15.59
2023-04-28T09:40:25.539Z,15.45
2023-04-28T09:41:25.573Z,15.43
2023-04-28T09:42:25.605Z,15.43
2023-04-28T09:43:25.673Z,15.52
2023-04-28T09:44:25.678Z,15.55
2023-04-28T09:45:25.690Z,15.55
2023-04-28T09:46:25.740Z,15.56
2023-04-28T09:47:25.831Z,15.74
2023-04-28T09:48:25.781Z,15.70
2023-04-28T09:49:25.806Z,15.58
2023-04-28T09:50:25.837Z,15.58
2023-04-28T09:51:25.866Z,15.56
2023-04-28T09:52:25.898Z,15.41
2023-04-28T09:53:25.923Z,15.41
2023-04-28T09:54:25.963Z,15.34
2023-04-28T09:55:25.993Z,15.27
2023-04-28T09:56:26.012Z,15.35
2023-04-28T09:57:26.045Z,15.34
2023-04-28T09:58:26.071Z,15.35
2023-04-28T09:59:26.105Z,15.33
2023-04-28T10:00:26.160Z,15.37
2023-04-28T10:01:26.214Z,15.45
2023-04-28T10:03:28.648Z,15.40
2023-04-28T10:04:26.534Z,15.35
2023-04-28T10:06:26.608Z,15.38
2023-04-28T10:07:26.338Z,15.38
2023-04-28T10:08:26.368Z,15.38
2023-04-28T10:09:59.920Z,15.38
2023-04-28T10:11:26.453Z,15.41
2023-04-28T10:12:26.494Z,15.44
2023-04-28T10:13:26.525Z,15.47
2023-04-28T10:14:26.541Z,15.52
2023-04-28T10:15:26.568Z,15.58
2023-04-28T10:16:26.759Z,15.47
2023-04-28T10:17:26.711Z,15.41
2023-04-28T10:18:26.690Z,15.31
2023-04-28T10:19:26.683Z,15.35
2023-04-28T10:20:26.720Z,15.23
2023-04-28T10:21:26.748Z,15.25
2023-04-28T10:22:26.976Z,15.10
2023-04-28T10:23:26.807Z,15.13
2023-04-28T10:24:26.834Z,15.04
2023-04-28T10:25:26.859Z,15.02
2023-04-28T10:26:26.995Z,15.01
2023-04-28T10:27:26.920Z,14.97
2023-04-28T10:28:26.954Z,15.00
2023-04-28T10:29:26.984Z,14.95
2023-04-28T10:30:28.801Z,15.07
2023-04-28T10:31:27.059Z,15.04
2023-04-28T10:32:27.302Z,15.12
2023-04-28T10:33:27.448Z,15.23
2023-04-28T10:34:27.410Z,15.35
2023-04-28T10:35:27.153Z,15.37
2023-04-28T10:36:36.097Z,15.31
2023-04-28T10:37:27.412Z,15.41
2023-04-28T10:38:27.447Z,15.49
2023-04-28T10:39:27.271Z,15.55
2023-04-28T10:41:00.508Z,15.60
2023-04-28T10:41:27.531Z,15.68
2023-04-28T10:42:27.558Z,15.67
2023-04-28T10:44:27.423Z,15.74
2023-04-28T10:45:27.460Z,15.78
2023-04-28T10:46:27.528Z,15.75
2023-04-28T10:47:28.947Z,15.88
2023-04-28T10:48:27.553Z,16.02
2023-04-28T10:49:27.571Z,16.02
2023-04-28T10:50:38.424Z,15.95
2023-04-28T10:51:27.620Z,16.02
2023-04-28T10:52:27.652Z,16.06
2023-04-28T10:53:27.928Z,16.13
2023-04-28T10:54:27.712Z,16.30
2023-04-28T10:55:27.739Z,16.42
2023-04-28T10:56:27.828Z,16.29
2023-04-28T10:57:27.796Z,16.48
2023-04-28T10:58:27.828Z,16.54
2023-04-28T10:59:27.859Z,16.47
2023-04-28T11:00:27.882Z,16.54
2023-04-28T11:01:27.934Z,16.49
2023-04-28T11:02:28.118Z,16.47
2023-04-28T11:03:28.313Z,16.51
2023-04-28T11:04:28.250Z,16.52
2023-04-28T11:05:28.035Z,16.52
2023-04-28T11:06:28.064Z,16.57
2023-04-28T11:07:28.299Z,16.66
2023-04-28T11:08:28.127Z,16.73
2023-04-28T11:09:28.155Z,16.95
2023-04-28T11:10:28.181Z,17.10
2023-04-28T11:11:28.218Z,17.13
2023-04-28T11:12:28.244Z,17.06
2023-04-28T11:13:28.472Z,17.09
2023-04-28T11:14:28.302Z,17.18
2023-04-28T11:15:28.329Z,17.13
2023-04-28T11:16:28.360Z,17.27
2023-04-28T11:17:28.434Z,17.50
2023-04-28T11:18:28.423Z,17.49
2023-04-28T11:19:28.450Z,17.55
2023-04-28T11:20:28.501Z,17.55
2023-04-28T11:21:28.575Z,17.39
2023-04-28T11:22:28.544Z,17.40
2023-04-28T11:23:28.769Z,17.43
2023-04-28T11:24:28.603Z,17.43
2023-04-28T11:25:28.632Z,17.58
2023-04-28T11:26:28.664Z,17.58
2023-04-28T11:27:28.690Z,17.71
2023-04-28T11:28:28.721Z,17.80
2023-04-28T11:29:28.748Z,17.87
2023-04-28T11:30:28.783Z,18.01
2023-04-28T11:31:28.990Z,18.01
2023-04-28T11:32:28.918Z,18.03
2023-04-28T11:33:28.869Z,18.13
2023-04-28T11:34:29.105Z,18.16
2023-04-28T11:35:28.939Z,18.31
2023-04-28T11:36:28.993Z,18.26
2023-04-28T11:37:28.994Z,18.39
2023-04-28T11:38:29.025Z,18.35
2023-04-28T11:39:29.056Z,18.36
2023-04-28T11:40:29.290Z,18.42
2023-04-28T11:41:29.125Z,18.32
2023-04-28T11:42:29.150Z,18.24
2023-04-28T11:43:40.248Z,18.32
2023-04-28T11:44:29.225Z,18.31
2023-04-28T11:45:29.253Z,18.08
2023-04-28T11:46:29.325Z,18.10
2023-04-28T11:48:29.346Z,17.94
2023-04-28T11:49:29.569Z,17.83
2023-04-28T11:51:29.430Z,17.79
2023-04-28T11:53:29.716Z,17.66
2023-04-28T11:54:29.540Z,17.60
2023-04-28T11:55:29.761Z,17.55
2023-04-28T11:56:29.658Z,17.57
2023-04-28T11:57:29.618Z,17.65
2023-04-28T11:58:29.652Z,17.60
2023-04-28T11:59:29.696Z,17.62
2023-04-28T12:00:29.724Z,17.66
2023-04-28T12:01:29.744Z,17.62
2023-04-28T12:02:30.154Z,17.80
2023-04-28T12:03:29.914Z,17.81
2023-04-28T12:04:29.897Z,17.96
2023-04-28T12:05:29.896Z,17.94
2023-04-28T12:06:29.903Z,18.01
2023-04-28T12:07:29.930Z,18.01
2023-04-28T12:08:29.964Z,18.13
2023-04-28T12:09:30.009Z,18.13
2023-04-28T12:10:30.017Z,18.27
2023-04-28T12:11:30.060Z,18.23
2023-04-28T12:12:40.024Z,18.32
2023-04-28T12:14:30.153Z,18.68
2023-04-28T12:15:30.177Z,18.82
2023-04-28T12:16:31.934Z,18.81
2023-04-28T12:18:30.271Z,18.97
2023-04-28T12:19:30.302Z,18.96
2023-04-28T12:20:30.539Z,18.96
2023-04-28T12:21:30.364Z,18.96
2023-04-28T12:22:30.407Z,18.94
2023-04-28T12:23:30.425Z,18.86
2023-04-28T12:24:30.459Z,18.79
2023-04-28T12:25:30.509Z,18.84
2023-04-28T12:26:30.527Z,18.90
2023-04-28T12:28:30.585Z,19.30
2023-04-28T12:29:30.617Z,19.38
2023-04-28T12:30:30.664Z,19.68
2023-04-28T12:31:30.707Z,19.56
2023-04-28T12:32:30.732Z,19.71
2023-04-28T12:33:30.743Z,19.42
2023-04-28T12:34:30.772Z,19.42
2023-04-28T12:35:30.807Z,19.40
2023-04-28T12:36:30.834Z,19.42
2023-04-28T12:37:30.878Z,19.38
2023-04-28T12:38:30.910Z,19.47
2023-04-28T12:39:30.934Z,19.60
2023-04-28T12:40:30.968Z,19.63
2023-04-28T12:41:31.016Z,19.63
2023-04-28T12:42:31.037Z,19.57
2023-04-28T12:43:31.061Z,19.61
2023-04-28T12:44:31.104Z,19.61
2023-04-28T12:45:31.124Z,19.55
2023-04-28T12:46:31.163Z,19.53
2023-04-28T12:47:31.290Z,19.56
2023-04-28T12:48:31.218Z,19.68
2023-04-28T12:49:31.252Z,19.65
2023-04-28T12:50:31.285Z,19.64
2023-04-28T12:51:31.313Z,19.64
2023-04-28T12:52:31.350Z,19.70
2023-04-28T12:53:31.376Z,19.71
2023-04-28T12:54:31.407Z,19.61
2023-04-28T12:55:31.453Z,19.61
2023-04-28T12:56:31.675Z,19.63
2023-04-28T12:57:31.521Z,19.63
2023-04-28T12:58:31.532Z,19.56
2023-04-28T12:59:31.569Z,19.65
2023-04-28T13:00:31.602Z,19.70
2023-04-28T13:01:31.667Z,19.68
2023-04-28T13:02:31.783Z,19.61
2023-04-28T13:03:31.900Z,19.61
2023-04-28T13:04:32.156Z,19.63
2023-04-28T13:05:31.753Z,19.56
2023-04-28T13:06:31.785Z,19.55
2023-04-28T13:07:31.824Z,19.50
2023-04-28T13:08:31.859Z,19.61
2023-04-28T13:09:31.887Z,19.45
2023-04-28T13:10:31.915Z,19.40
2023-04-28T13:11:31.944Z,19.47
2023-04-28T13:12:31.973Z,19.40
2023-04-28T13:13:32.022Z,19.35
2023-04-28T13:14:32.040Z,19.57
2023-04-28T13:15:32.074Z,19.65
2023-04-28T13:16:32.157Z,19.72
2023-04-28T13:17:32.140Z,19.93
2023-04-28T13:18:32.160Z,20.08
2023-04-28T13:19:32.201Z,20.05
2023-04-28T13:20:32.223Z,20.02
2023-04-28T13:21:32.256Z,20.04
2023-04-28T13:22:32.306Z,20.26
2023-04-28T13:23:32.725Z,20.29
2023-04-28T13:24:32.349Z,20.38
2023-04-28T13:25:32.382Z,20.54
2023-04-28T13:26:32.415Z,20.63
2023-04-28T13:27:32.443Z,20.68
2023-04-28T13:28:32.475Z,20.81
2023-04-28T13:29:32.549Z,20.78
2023-04-28T13:30:32.585Z,20.91
2023-04-28T13:31:32.587Z,21.03
2023-04-28T13:32:32.706Z,21.13
2023-04-28T13:33:32.631Z,21.13
2023-04-28T13:34:32.664Z,21.13
2023-04-28T13:35:32.696Z,21.13
2023-04-28T13:36:32.745Z,21.09
2023-04-28T13:37:32.757Z,20.82
2023-04-28T13:38:32.792Z,20.61
2023-04-28T13:39:32.819Z,20.71
2023-04-28T13:40:32.860Z,20.72
2023-04-28T13:41:32.891Z,20.71
2023-04-28T13:42:32.920Z,20.82
2023-04-28T13:43:32.949Z,20.93
2023-04-28T13:44:32.984Z,20.94
2023-04-28T13:45:33.059Z,20.93
2023-04-28T13:46:33.041Z,21.01
2023-04-28T13:47:33.127Z,21.12
2023-04-28T13:48:33.106Z,21.06
2023-04-28T13:49:33.148Z,20.75
2023-04-28T13:50:33.166Z,20.56
2023-04-28T13:51:33.211Z,20.63
2023-04-28T13:52:33.235Z,20.56
2023-04-28T13:53:33.269Z,20.60
2023-04-28T13:54:33.295Z,20.37
2023-04-28T13:55:33.329Z,20.32
2023-04-28T13:56:33.362Z,20.11
2023-04-28T13:57:33.389Z,20.16